Time;durP1;ratioP1;P1;durP2;ratioP2;P2;SDS_P1;SDS_P2;PMS_P1;PMS_P2;Temp;Humidity;BMP_temperature;BMP_pressure;BME280_temperature;BME280_humidity;BME280_pressure;Samples;Min_cycle;Max_cycle;Signal;HPM_P1;HPM_P2
2021/06/30 00:00:34;;;;;;;16.53;14.13;;;18.60;99.90;;;;;;5100948;28;20236;-48
2021/06/30 00:03:01;;;;;;;13.97;12.60;;;18.60;99.90;;;;;;5104437;28;20678;-48
2021/06/30 00:05:28;;;;;;;15.00;12.70;;;18.60;99.90;;;;;;5100120;28;20295;-45
2021/06/30 00:07:55;;;;;;;15.13;12.90;;;18.60;99.90;;;;;;5104316;28;20219;-48
2021/06/30 00:10:22;;;;;;;16.40;13.97;;;18.60;99.90;;;;;;5078410;28;20214;-52
2021/06/30 00:12:48;;;;;;;14.83;13.33;;;18.50;99.90;;;;;;5103274;28;20216;-46
2021/06/30 00:15:19;;;;;;;15.00;13.50;;;18.50;99.90;;;;;;5102339;28;20192;-47
2021/06/30 00:17:47;;;;;;;15.17;12.80;;;18.50;99.90;;;;;;5103204;28;20205;-47
2021/06/30 00:20:15;;;;;;;14.97;13.30;;;18.50;99.90;;;;;;5101469;28;20237;-48
2021/06/30 00:22:42;;;;;;;17.90;13.30;;;18.50;99.90;;;;;;5102285;28;20213;-49
2021/06/30 00:25:13;;;;;;;14.57;12.50;;;18.40;99.90;;;;;;5088004;28;20205;-54
2021/06/30 00:27:42;;;;;;;15.57;12.10;;;18.40;99.90;;;;;;5094561;27;20185;-47
2021/06/30 00:30:10;;;;;;;16.40;13.57;;;18.40;99.90;;;;;;5102207;28;20195;-52
2021/06/30 00:32:37;;;;;;;17.80;13.23;;;18.40;99.90;;;;;;5101388;28;20800;-46
2021/06/30 00:35:06;;;;;;;19.83;15.07;;;18.50;99.90;;;;;;5102248;28;20583;-46
2021/06/30 00:37:32;;;;;;;15.13;13.53;;;18.50;99.90;;;;;;5099512;28;20314;-47
2021/06/30 00:39:59;;;;;;;22.47;15.00;;;18.50;99.90;;;;;;5088280;28;20213;-50
2021/06/30 00:42:29;;;;;;;21.27;16.33;;;18.50;99.90;;;;;;5099024;28;20193;-49
2021/06/30 00:44:56;;;;;;;15.20;13.47;;;18.50;99.90;;;;;;5103424;28;20205;-48
2021/06/30 00:47:24;;;;;;;16.40;14.70;;;18.50;99.90;;;;;;5099842;28;20205;-52
2021/06/30 00:49:51;;;;;;;16.20;14.37;;;18.60;99.90;;;;;;5103388;28;20535;-48
2021/06/30 00:52:19;;;;;;;18.73;14.70;;;18.60;99.90;;;;;;5101115;28;20220;-53
2021/06/30 00:54:45;;;;;;;18.07;14.03;;;18.60;99.90;;;;;;5102125;28;20185;-46
2021/06/30 00:57:14;;;;;;;18.97;14.53;;;18.60;99.90;;;;;;5086935;28;20201;-49
2021/06/30 00:59:41;;;;;;;16.93;14.23;;;18.50;99.90;;;;;;5100644;28;20204;-48
2021/06/30 01:02:08;;;;;;;16.23;13.73;;;18.50;99.90;;;;;;5102707;28;20221;-52
2021/06/30 01:04:34;;;;;;;14.60;13.10;;;18.40;99.90;;;;;;5100297;28;20193;-45
2021/06/30 01:07:01;;;;;;;14.27;12.60;;;18.40;99.90;;;;;;5103490;28;20205;-46
2021/06/30 01:09:30;;;;;;;20.53;12.87;;;18.40;99.90;;;;;;5093959;28;20913;-46
2021/06/30 01:11:58;;;;;;;20.07;14.53;;;18.40;99.90;;;;;;5087645;28;20217;-45
2021/06/30 01:14:26;;;;;;;19.13;15.00;;;18.30;99.90;;;;;;5098620;28;20197;-52
2021/06/30 01:16:53;;;;;;;17.73;14.93;;;18.20;99.90;;;;;;5103150;28;20206;-45
2021/06/30 01:19:21;;;;;;;15.73;12.37;;;18.20;99.90;;;;;;5099845;28;20705;-52
2021/06/30 01:21:48;;;;;;;18.20;13.80;;;18.20;99.90;;;;;;5102482;28;20717;-48
2021/06/30 01:24:16;;;;;;;22.73;15.07;;;18.20;99.90;;;;;;5101251;28;20205;-50
2021/06/30 01:26:43;;;;;;;29.73;14.57;;;18.20;99.90;;;;;;5086472;28;20205;-49
2021/06/30 01:29:10;;;;;;;16.63;13.27;;;18.10;99.90;;;;;;5099924;28;20692;-51
2021/06/30 01:31:36;;;;;;;16.60;14.20;;;18.10;99.90;;;;;;5099969;28;20213;-46
2021/06/30 01:34:03;;;;;;;34.77;15.30;;;18.10;99.90;;;;;;5103124;28;20873;-47
2021/06/30 01:36:42;;;;;;;48.77;15.90;;;18.20;99.90;;;;;;5099134;28;20193;-50
2021/06/30 01:39:09;;;;;;;26.50;15.07;;;18.10;99.90;;;;;;5096545;28;20213;-53
2021/06/30 01:41:37;;;;;;;22.30;14.80;;;18.10;99.90;;;;;;5101208;28;20697;-48
2021/06/30 01:44:04;;;;;;;22.90;13.87;;;18.10;99.90;;;;;;5093579;28;20204;-45
2021/06/30 01:46:31;;;;;;;28.73;14.00;;;18.20;99.90;;;;;;5102535;28;20193;-47
2021/06/30 01:48:57;;;;;;;25.73;14.60;;;18.10;99.90;;;;;;5107081;28;20193;-45
2021/06/30 01:51:24;;;;;;;16.57;13.87;;;18.10;99.90;;;;;;5103010;28;20247;-51
2021/06/30 01:53:54;;;;;;;29.50;13.53;;;18.20;99.90;;;;;;5106287;28;20197;-49
2021/06/30 01:56:23;;;;;;;14.90;13.50;;;18.10;99.90;;;;;;5103608;28;20194;-51
2021/06/30 01:58:59;;;;;;;15.93;13.37;;;18.10;99.90;;;;;;5090902;28;20193;-45
2021/06/30 02:01:26;;;;;;;14.13;12.43;;;18.10;99.90;;;;;;5098552;28;20904;-52
2021/06/30 02:03:54;;;;;;;14.70;13.30;;;18.10;99.90;;;;;;5106903;28;20565;-48
2021/06/30 02:06:21;;;;;;;14.00;12.80;;;18.20;99.90;;;;;;5103558;28;20186;-52
2021/06/30 02:08:47;;;;;;;14.63;13.23;;;18.20;99.90;;;;;;5102780;27;20558;-50
2021/06/30 02:11:14;;;;;;;14.77;13.37;;;18.20;99.90;;;;;;5097886;28;20213;-51
2021/06/30 02:13:41;;;;;;;16.07;13.50;;;18.20;99.90;;;;;;5087823;28;20209;-50
2021/06/30 02:16:09;;;;;;;14.47;13.10;;;18.20;99.90;;;;;;5099995;28;20208;-49
2021/06/30 02:18:36;;;;;;;21.87;16.53;;;18.20;99.90;;;;;;5101658;28;20186;-46
2021/06/30 02:21:03;;;;;;;16.47;14.77;;;18.20;99.90;;;;;;5099525;28;20283;-47
2021/06/30 02:23:29;;;;;;;61.83;18.10;;;18.30;99.90;;;;;;5095518;28;20193;-48
2021/06/30 02:25:56;;;;;;;15.90;14.27;;;18.30;99.90;;;;;;5106516;28;20201;-48
2021/06/30 02:28:22;;;;;;;30.40;17.30;;;18.30;99.90;;;;;;5089868;28;20204;-53
2021/06/30 02:30:49;;;;;;;16.90;15.10;;;18.20;99.90;;;;;;5103856;28;20682;-45
2021/06/30 02:33:17;;;;;;;19.13;16.00;;;18.20;99.90;;;;;;5103882;28;20204;-50
2021/06/30 02:35:45;;;;;;;21.67;16.67;;;18.20;99.90;;;;;;5104594;28;20916;-46
2021/06/30 02:38:12;;;;;;;21.87;17.37;;;18.20;99.90;;;;;;5105192;28;20647;-52
2021/06/30 02:40:39;;;;;;;22.73;16.87;;;18.20;99.90;;;;;;5098545;28;20213;-45
2021/06/30 02:43:06;;;;;;;21.57;17.73;;;18.20;99.90;;;;;;5105538;28;20670;-50
2021/06/30 02:45:33;;;;;;;30.10;19.73;;;18.30;99.90;;;;;;5089748;28;20201;-47
2021/06/30 02:48:00;;;;;;;31.17;19.70;;;18.30;99.90;;;;;;5104246;28;20202;-46
2021/06/30 02:50:28;;;;;;;29.93;18.40;;;18.30;99.90;;;;;;5101493;28;20205;-48
2021/06/30 02:52:55;;;;;;;27.03;19.53;;;18.30;99.90;;;;;;5105054;28;20219;-48
2021/06/30 02:55:21;;;;;;;34.17;20.93;;;18.30;99.90;;;;;;5101757;28;20201;-49
2021/06/30 02:57:49;;;;;;;36.43;20.33;;;18.40;99.90;;;;;;5105296;28;20804;-45
2021/06/30 03:00:20;;;;;;;38.60;20.50;;;18.40;99.90;;;;;;5087934;28;20217;-50
2021/06/30 03:02:46;;;;;;;32.13;21.47;;;18.40;99.90;;;;;;5104228;27;20194;-46
2021/06/30 03:05:13;;;;;;;42.53;22.13;;;18.40;99.90;;;;;;5104042;28;20280;-49
2021/06/30 03:07:41;;;;;;;40.17;20.67;;;18.40;99.90;;;;;;5103255;28;20200;-46
2021/06/30 03:10:12;;;;;;;44.83;22.67;;;18.40;99.90;;;;;;5104475;27;20197;-53
2021/06/30 03:12:39;;;;;;;51.30;22.30;;;18.40;99.90;;;;;;5101020;28;20400;-47
2021/06/30 03:15:08;;;;;;;41.00;21.63;;;18.40;99.90;;;;;;5098834;28;20654;-50
2021/06/30 03:17:35;;;;;;;35.87;22.47;;;18.40;99.90;;;;;;5089444;28;20205;-47
2021/06/30 03:20:02;;;;;;;40.57;24.33;;;18.40;99.90;;;;;;5104906;28;20213;-48
2021/06/30 03:22:29;;;;;;;43.77;23.73;;;18.40;99.90;;;;;;5094951;28;20297;-49
2021/06/30 03:24:57;;;;;;;43.10;24.07;;;18.40;99.90;;;;;;5097864;28;20197;-47
2021/06/30 03:27:24;;;;;;;54.83;26.47;;;18.40;99.90;;;;;;5094838;28;20660;-49
2021/06/30 03:29:51;;;;;;;52.97;26.50;;;18.40;99.90;;;;;;5104665;28;20186;-48
2021/06/30 03:32:18;;;;;;;52.20;26.37;;;18.40;99.90;;;;;;5081302;28;20231;-52
2021/06/30 03:34:45;;;;;;;50.30;26.33;;;18.40;99.90;;;;;;5102948;28;20198;-45
2021/06/30 03:37:11;;;;;;;43.53;24.27;;;18.40;99.90;;;;;;5097425;28;20201;-52
2021/06/30 03:39:39;;;;;;;46.73;25.23;;;18.40;99.90;;;;;;5101952;28;20185;-45
2021/06/30 03:42:07;;;;;;;49.63;25.87;;;18.40;99.90;;;;;;5104644;28;20213;-51
2021/06/30 03:44:34;;;;;;;47.70;26.17;;;18.50;99.90;;;;;;5094448;28;20836;-46
2021/06/30 03:47:00;;;;;;;45.43;26.03;;;18.50;99.90;;;;;;5082785;28;20678;-45
2021/06/30 03:49:27;;;;;;;47.80;25.60;;;18.50;99.90;;;;;;5099516;28;20190;-48
2021/06/30 03:51:54;;;;;;;44.67;25.03;;;18.50;99.90;;;;;;5104879;28;20231;-47
2021/06/30 03:54:24;;;;;;;48.43;25.83;;;18.50;99.90;;;;;;5100930;28;20581;-51
2021/06/30 03:56:51;;;;;;;50.00;27.67;;;18.50;99.90;;;;;;5098003;28;20224;-45
2021/06/30 03:59:19;;;;;;;52.33;26.77;;;18.50;99.90;;;;;;5095275;28;20202;-51
2021/06/30 04:01:46;;;;;;;52.93;27.87;;;18.50;99.90;;;;;;5097116;28;20228;-53
2021/06/30 04:04:14;;;;;;;55.10;27.33;;;18.50;99.90;;;;;;5078625;28;20205;-50
2021/06/30 04:06:40;;;;;;;54.73;27.73;;;18.50;99.90;;;;;;5100764;28;20258;-45
2021/06/30 04:09:07;;;;;;;47.33;26.47;;;18.50;99.90;;;;;;5092081;28;20228;-52
2021/06/30 04:11:34;;;;;;;47.80;26.57;;;18.50;99.90;;;;;;5099986;28;20312;-45
2021/06/30 04:14:01;;;;;;;50.17;28.00;;;18.50;99.90;;;;;;5104146;28;20197;-47
2021/06/30 04:16:29;;;;;;;51.87;27.67;;;18.50;99.90;;;;;;5099150;28;20189;-48
2021/06/30 04:18:56;;;;;;;47.43;26.73;;;18.50;99.90;;;;;;5089320;28;20205;-45
2021/06/30 04:21:22;;;;;;;47.30;27.13;;;18.50;99.90;;;;;;5099825;28;20220;-51
2021/06/30 04:23:50;;;;;;;52.13;27.13;;;18.60;99.90;;;;;;5103585;28;20658;-46
2021/06/30 04:26:16;;;;;;;47.47;27.03;;;18.60;99.90;;;;;;5101526;28;20258;-51
2021/06/30 04:28:43;;;;;;;48.93;29.10;;;18.60;99.90;;;;;;5101992;28;20201;-47
2021/06/30 04:31:10;;;;;;;46.70;28.53;;;18.70;99.90;;;;;;5103129;28;20229;-51
2021/06/30 04:33:37;;;;;;;48.77;28.53;;;18.60;99.90;;;;;;5101222;28;20208;-44
2021/06/30 04:36:05;;;;;;;47.80;29.23;;;18.70;99.90;;;;;;5088641;28;20518;-48
2021/06/30 04:38:31;;;;;;;50.30;28.50;;;18.70;99.90;;;;;;5098992;28;20728;-50
2021/06/30 04:40:58;;;;;;;49.53;29.73;;;18.70;99.90;;;;;;5102627;28;20220;-46
2021/06/30 04:43:24;;;;;;;52.73;30.70;;;18.70;99.90;;;;;;5099176;28;20235;-52
2021/06/30 04:45:51;;;;;;;48.13;30.53;;;18.70;99.90;;;;;;5103744;28;20701;-46
2021/06/30 04:48:19;;;;;;;50.00;32.33;;;18.70;99.90;;;;;;5101050;28;20288;-53
2021/06/30 04:50:47;;;;;;;50.27;31.87;;;18.80;99.90;;;;;;5087155;28;20249;-44
2021/06/30 04:53:14;;;;;;;50.07;31.80;;;18.70;99.90;;;;;;5101126;28;20541;-48
2021/06/30 04:55:41;;;;;;;48.13;32.63;;;18.70;99.90;;;;;;5100652;28;20846;-45
2021/06/30 04:58:08;;;;;;;48.50;32.07;;;18.80;99.90;;;;;;5103190;28;20211;-53
2021/06/30 05:00:35;;;;;;;50.50;31.03;;;18.80;99.90;;;;;;5099671;28;20304;-46
2021/06/30 05:03:02;;;;;;;49.43;29.67;;;18.80;99.90;;;;;;5103357;28;20246;-48
2021/06/30 05:05:28;;;;;;;47.80;32.80;;;18.80;99.90;;;;;;5084048;28;20201;-49
2021/06/30 05:07:56;;;;;;;48.27;31.73;;;18.80;99.90;;;;;;5102982;28;20987;-44
2021/06/30 05:10:24;;;;;;;45.27;30.53;;;18.80;99.90;;;;;;5094365;28;20717;-54
2021/06/30 05:12:51;;;;;;;46.20;30.90;;;18.80;99.90;;;;;;5102378;28;20258;-49
2021/06/30 05:15:18;;;;;;;51.63;33.63;;;18.80;99.90;;;;;;5099421;28;20202;-50
2021/06/30 05:17:44;;;;;;;50.30;31.80;;;18.90;99.90;;;;;;5102105;28;20272;-49
2021/06/30 05:20:12;;;;;;;49.77;31.40;;;18.80;99.90;;;;;;5096874;28;20203;-52
2021/06/30 05:22:39;;;;;;;47.63;31.50;;;18.90;99.90;;;;;;5092438;28;20193;-47
2021/06/30 05:25:08;;;;;;;49.83;30.70;;;18.90;99.90;;;;;;5102391;28;20197;-53
2021/06/30 05:27:35;;;;;;;45.10;29.93;;;18.90;99.90;;;;;;5100053;28;20193;-45
2021/06/30 05:30:02;;;;;;;43.17;29.83;;;18.90;99.90;;;;;;5102839;28;20197;-48
2021/06/30 05:32:28;;;;;;;45.50;31.90;;;18.90;99.90;;;;;;5098705;28;20200;-48
2021/06/30 05:34:55;;;;;;;42.03;30.87;;;18.90;99.90;;;;;;5103043;28;20201;-46
2021/06/30 05:37:22;;;;;;;46.90;30.77;;;18.90;99.90;;;;;;5084242;28;20205;-54
2021/06/30 05:39:48;;;;;;;54.73;33.67;;;18.90;99.90;;;;;;5100675;28;20193;-51
2021/06/30 05:42:16;;;;;;;53.53;33.03;;;18.90;99.90;;;;;;5100200;28;20708;-51
2021/06/30 05:44:43;;;;;;;50.53;32.73;;;18.90;99.90;;;;;;5101701;28;20196;-49
2021/06/30 05:47:10;;;;;;;49.33;32.17;;;18.90;99.90;;;;;;5101945;28;20193;-53
2021/06/30 05:49:36;;;;;;;44.07;31.33;;;19.00;99.90;;;;;;5100095;28;20208;-47
2021/06/30 05:52:04;;;;;;;52.00;32.07;;;19.00;99.90;;;;;;5084240;28;20225;-51
2021/06/30 05:54:30;;;;;;;51.30;32.27;;;19.00;99.90;;;;;;5097611;28;20216;-47
2021/06/30 05:56:57;;;;;;;52.20;33.73;;;19.00;99.90;;;;;;5102721;28;20712;-48
2021/06/30 05:59:25;;;;;;;48.97;32.63;;;19.00;99.90;;;;;;5099194;28;20201;-54
2021/06/30 06:01:51;;;;;;;49.07;30.97;;;19.10;99.90;;;;;;5102750;28;20217;-50
2021/06/30 06:04:18;;;;;;;48.57;31.97;;;19.10;99.90;;;;;;5100504;28;20203;-55
2021/06/30 06:06:45;;;;;;;48.20;31.67;;;19.20;99.90;;;;;;5086073;28;20205;-46
2021/06/30 06:09:11;;;;;;;52.80;33.90;;;19.30;99.90;;;;;;5101084;28;20662;-54
2021/06/30 06:11:38;;;;;;;43.77;31.77;;;19.30;99.90;;;;;;5099389;28;20217;-50
2021/06/30 06:14:05;;;;;;;46.17;31.30;;;19.20;99.90;;;;;;5103205;28;20642;-51
2021/06/30 06:16:32;;;;;;;43.77;30.33;;;19.20;99.90;;;;;;5098555;28;20205;-52
2021/06/30 06:19:00;;;;;;;45.97;31.10;;;19.10;99.90;;;;;;5102773;28;20241;-48
2021/06/30 06:21:26;;;;;;;46.40;30.57;;;19.10;99.90;;;;;;5078857;28;20221;-52
2021/06/30 06:23:53;;;;;;;40.20;29.43;;;19.10;99.90;;;;;;5102045;28;20204;-47
2021/06/30 06:26:20;;;;;;;45.70;29.30;;;19.10;99.90;;;;;;5099125;28;20223;-55
2021/06/30 06:28:48;;;;;;;39.70;28.60;;;19.00;99.90;;;;;;5103251;28;20208;-47
2021/06/30 06:31:16;;;;;;;41.43;28.93;;;19.00;99.90;;;;;;5104412;28;20224;-50
2021/06/30 06:33:44;;;;;;;40.60;28.93;;;19.10;99.90;;;;;;5104421;28;20918;-46
2021/06/30 06:36:11;;;;;;;45.10;29.93;;;19.10;99.90;;;;;;5105302;28;20225;-51
2021/06/30 06:38:39;;;;;;;44.63;29.93;;;19.10;99.90;;;;;;5088497;28;20206;-45
2021/06/30 06:41:06;;;;;;;43.60;29.43;;;19.10;99.90;;;;;;5104833;28;20206;-50
2021/06/30 06:43:34;;;;;;;42.77;29.70;;;19.00;99.90;;;;;;5102336;27;20197;-50
2021/06/30 06:46:01;;;;;;;46.73;30.00;;;19.10;99.90;;;;;;5105685;28;20603;-45
2021/06/30 06:48:28;;;;;;;50.60;30.77;;;19.00;99.90;;;;;;5101726;28;20271;-48
2021/06/30 06:50:56;;;;;;;46.83;31.17;;;19.00;99.90;;;;;;5105460;28;20214;-49
2021/06/30 06:53:22;;;;;;;48.57;31.37;;;19.00;99.90;;;;;;5089013;28;20197;-54
2021/06/30 06:55:50;;;;;;;46.87;30.97;;;19.00;99.90;;;;;;5102757;28;20204;-48
2021/06/30 06:58:17;;;;;;;46.50;31.47;;;18.90;99.90;;;;;;5103004;28;20225;-50
2021/06/30 07:00:44;;;;;;;49.10;31.67;;;18.90;99.90;;;;;;5104027;28;20215;-46
2021/06/30 07:03:10;;;;;;;42.30;29.73;;;18.90;99.90;;;;;;5104718;28;20311;-51
2021/06/30 07:05:37;;;;;;;41.33;30.30;;;19.00;99.90;;;;;;5103176;28;20197;-47
2021/06/30 07:08:06;;;;;;;44.60;28.87;;;18.90;99.90;;;;;;5105391;28;20553;-45
2021/06/30 07:10:32;;;;;;;42.67;30.70;;;18.90;99.90;;;;;;5087620;28;20253;-51
2021/06/30 07:13:00;;;;;;;43.50;30.50;;;18.80;99.90;;;;;;5105469;28;20231;-49
2021/06/30 07:15:26;;;;;;;41.03;28.97;;;18.80;99.90;;;;;;5101274;28;20920;-45
2021/06/30 07:17:53;;;;;;;38.47;27.83;;;18.80;99.90;;;;;;5105648;28;20197;-47
2021/06/30 07:20:20;;;;;;;41.63;28.90;;;18.80;99.90;;;;;;5102391;28;20224;-50
2021/06/30 07:22:46;;;;;;;45.00;29.97;;;18.90;99.90;;;;;;5101526;28;20209;-47
2021/06/30 07:25:18;;;;;;;39.93;29.30;;;18.80;99.90;;;;;;5087893;28;20209;-48
2021/06/30 07:27:45;;;;;;;39.90;28.00;;;18.80;99.90;;;;;;5103506;28;20197;-46
2021/06/30 07:30:12;;;;;;;36.83;26.93;;;18.80;99.90;;;;;;5103463;28;20284;-53
2021/06/30 07:32:39;;;;;;;43.13;29.47;;;18.90;99.90;;;;;;5102980;28;20213;-46
2021/06/30 07:35:06;;;;;;;40.87;29.00;;;18.80;99.90;;;;;;5105371;28;20589;-48
2021/06/30 07:37:33;;;;;;;40.43;28.63;;;18.80;99.90;;;;;;5101154;28;20217;-47
2021/06/30 07:39:59;;;;;;;39.50;28.73;;;18.80;99.90;;;;;;5089365;28;20654;-45
2021/06/30 07:42:27;;;;;;;41.83;28.90;;;18.80;99.90;;;;;;5093538;28;20804;-48
2021/06/30 07:44:54;;;;;;;40.93;29.13;;;18.80;99.90;;;;;;5104873;28;20197;-48
2021/06/30 07:47:20;;;;;;;39.57;27.63;;;18.80;99.90;;;;;;5101724;28;20193;-51
2021/06/30 07:49:48;;;;;;;36.90;27.77;;;18.80;99.90;;;;;;5104043;28;20197;-45
2021/06/30 07:52:14;;;;;;;40.80;29.13;;;18.80;99.90;;;;;;5097297;28;20227;-50
2021/06/30 07:54:41;;;;;;;44.23;28.17;;;18.80;99.90;;;;;;5101554;28;20196;-47
2021/06/30 07:57:07;;;;;;;41.37;29.13;;;18.90;99.90;;;;;;5088344;28;20221;-52
2021/06/30 07:59:35;;;;;;;45.63;30.23;;;18.90;99.90;;;;;;5100804;28;20202;-46
2021/06/30 08:02:02;;;;;;;39.80;28.67;;;18.90;99.90;;;;;;5104520;27;20221;-49
2021/06/30 08:04:29;;;;;;;42.40;28.97;;;19.00;99.90;;;;;;5100327;28;20200;-48
2021/06/30 08:06:55;;;;;;;41.03;28.50;;;19.00;99.90;;;;;;5104069;28;20235;-44
2021/06/30 08:09:22;;;;;;;45.20;29.87;;;19.00;99.90;;;;;;5100776;28;20204;-50
2021/06/30 08:11:49;;;;;;;38.03;27.73;;;19.00;99.90;;;;;;5088337;28;20221;-45
2021/06/30 08:14:16;;;;;;;41.40;29.03;;;19.00;99.90;;;;;;5101538;28;20197;-49
2021/06/30 08:16:44;;;;;;;38.77;28.40;;;19.00;99.90;;;;;;5102503;28;20921;-47
2021/06/30 08:19:11;;;;;;;38.90;28.77;;;19.10;99.90;;;;;;5102994;28;20389;-49
2021/06/30 08:21:37;;;;;;;39.63;28.50;;;19.10;99.90;;;;;;5100155;28;20221;-47
2021/06/30 08:24:04;;;;;;;39.07;27.73;;;19.00;99.90;;;;;;5103260;28;20228;-44
2021/06/30 08:26:31;;;;;;;41.07;27.80;;;19.00;99.90;;;;;;5084585;28;22001;-46
2021/06/30 08:28:58;;;;;;;39.60;28.47;;;19.00;99.90;;;;;;5103307;28;20193;-46
2021/06/30 08:31:26;;;;;;;36.30;26.97;;;19.00;99.90;;;;;;5099866;28;20223;-49
2021/06/30 08:33:54;;;;;;;35.93;27.77;;;19.00;99.90;;;;;;5104448;28;20594;-48
2021/06/30 08:36:21;;;;;;;37.57;27.53;;;19.10;99.90;;;;;;5101237;28;20740;-48
2021/06/30 08:38:47;;;;;;;35.70;27.60;;;19.10;99.90;;;;;;5103358;28;20204;-50
2021/06/30 08:41:16;;;;;;;32.07;26.10;;;19.10;99.90;;;;;;5095178;28;20221;-46
2021/06/30 08:43:43;;;;;;;35.77;25.77;;;19.10;99.90;;;;;;5096620;28;20185;-49
2021/06/30 08:46:10;;;;;;;38.97;26.93;;;19.10;99.90;;;;;;5103338;28;20201;-47
2021/06/30 08:48:37;;;;;;;41.03;28.30;;;19.10;99.90;;;;;;5101316;28;20186;-46
2021/06/30 08:51:09;;;;;;;38.73;27.83;;;19.10;99.90;;;;;;5103321;28;20232;-46
2021/06/30 08:53:37;;;;;;;43.27;29.53;;;19.10;99.90;;;;;;5100202;28;20276;-49
2021/06/30 08:56:05;;;;;;;39.90;28.37;;;19.10;99.90;;;;;;5103683;28;20197;-46
2021/06/30 08:58:31;;;;;;;45.43;28.73;;;19.20;99.90;;;;;;5085209;28;20221;-47
2021/06/30 09:00:59;;;;;;;45.57;29.90;;;19.20;99.90;;;;;;5103311;28;20227;-47
2021/06/30 09:03:26;;;;;;;42.70;28.07;;;19.20;99.90;;;;;;5099800;28;20494;-45
2021/06/30 09:06:12;;;;;;;44.77;28.77;;;19.20;99.90;;;;;;5104065;28;20205;-46
2021/06/30 09:09:01;;;;;;;39.67;28.53;;;19.20;99.90;;;;;;5102415;28;20189;-47
2021/06/30 09:11:31;;;;;;;37.40;26.53;;;19.30;99.90;;;;;;5094109;28;20323;-46
2021/06/30 09:14:21;;;;;;;40.03;28.97;;;19.30;99.90;;;;;;5089130;28;20209;-47
2021/06/30 09:17:06;;;;;;;45.63;28.37;;;19.30;99.90;;;;;;5099333;28;20220;-48
2021/06/30 09:20:08;;;;;;;38.60;26.67;;;19.30;99.90;;;;;;5094128;28;20819;-47
2021/06/30 09:22:43;;;;;;;39.70;28.03;;;19.30;99.90;;;;;;5100030;28;20220;-47
2021/06/30 09:25:26;;;;;;;37.63;27.57;;;19.30;99.90;;;;;;5102939;28;20291;-50
2021/06/30 09:27:52;;;;;;;38.20;25.83;;;19.30;99.90;;;;;;5098893;28;20280;-46
2021/06/30 09:30:20;;;;;;;38.40;27.93;;;19.40;99.90;;;;;;5085816;28;20213;-49
2021/06/30 09:32:54;;;;;;;33.63;25.03;;;19.50;99.90;;;;;;5102745;28;20201;-48
2021/06/30 09:35:23;;;;;;;37.70;26.87;;;19.50;99.90;;;;;;5100789;28;20201;-48
2021/06/30 09:37:50;;;;;;;39.37;26.53;;;19.60;99.90;;;;;;5103792;28;21147;-47
2021/06/30 09:40:19;;;;;;;32.00;25.20;;;19.70;99.90;;;;;;5101196;28;20380;-51
2021/06/30 09:42:46;;;;;;;32.73;24.50;;;19.80;99.90;;;;;;5102488;28;20220;-47
2021/06/30 09:45:18;;;;;;;33.70;24.73;;;19.80;99.90;;;;;;5087735;28;20670;-46
2021/06/30 09:47:47;;;;;;;31.67;23.77;;;19.80;99.90;;;;;;5102482;28;20201;-52
2021/06/30 09:50:16;;;;;;;32.27;25.07;;;19.90;99.90;;;;;;5101818;28;20256;-45
2021/06/30 09:52:45;;;;;;;28.27;23.70;;;20.00;99.90;;;;;;5093900;28;20189;-48
2021/06/30 09:55:30;;;;;;;28.47;23.33;;;20.00;99.90;;;;;;5101606;28;20197;-48
2021/06/30 09:57:59;;;;;;;28.27;22.80;;;20.00;99.90;;;;;;5097731;28;20577;-47
2021/06/30 10:00:28;;;;;;;30.33;22.57;;;20.00;99.90;;;;;;5079134;28;20225;-50
2021/06/30 10:02:55;;;;;;;28.03;22.60;;;20.00;99.90;;;;;;5106778;28;20312;-51
2021/06/30 10:05:31;;;;;;;25.97;21.63;;;20.00;99.90;;;;;;5103766;28;20201;-50
2021/06/30 10:08:11;;;;;;;27.87;21.93;;;20.00;99.90;;;;;;5106952;28;20299;-48
2021/06/30 10:10:40;;;;;;;30.50;23.47;;;20.10;99.90;;;;;;5103159;28;20231;-51
2021/06/30 10:13:07;;;;;;;28.60;21.27;;;20.20;99.90;;;;;;5106848;28;20281;-49
2021/06/30 10:15:34;;;;;;;26.73;21.10;;;20.20;99.90;;;;;;5088574;28;20347;-50
2021/06/30 10:18:02;;;;;;;27.10;21.67;;;20.30;99.90;;;;;;5107202;28;20658;-48
2021/06/30 10:20:29;;;;;;;26.73;22.13;;;20.30;99.90;;;;;;5101830;28;20948;-52
2021/06/30 10:22:55;;;;;;;26.90;21.23;;;20.30;99.90;;;;;;5103567;28;20689;-52
2021/06/30 10:25:22;;;;;;;26.10;20.37;;;20.30;99.90;;;;;;5102925;28;20201;-49
2021/06/30 10:27:53;;;;;;;24.80;20.40;;;20.30;99.90;;;;;;5106346;28;20533;-48
2021/06/30 10:30:20;;;;;;;23.13;18.10;;;20.30;99.90;;;;;;5093442;27;20198;-47
2021/06/30 10:32:59;;;;;;;26.00;18.53;;;20.40;99.90;;;;;;5102347;28;20561;-49
2021/06/30 10:35:26;;;;;;;20.53;18.20;;;20.40;99.90;;;;;;5102664;28;20262;-50
2021/06/30 10:37:55;;;;;;;22.20;17.47;;;20.40;99.90;;;;;;5106906;28;20201;-51
2021/06/30 10:40:23;;;;;;;19.13;17.13;;;20.40;99.90;;;;;;5102765;28;20256;-53
2021/06/30 10:43:11;;;;;;;22.33;17.87;;;20.30;99.90;;;;;;5106523;28;20252;-49
2021/06/30 10:45:38;;;;;;;20.50;17.13;;;20.30;99.90;;;;;;5083981;28;20748;-50
2021/06/30 10:48:07;;;;;;;20.20;17.20;;;20.30;99.90;;;;;;5106647;28;20654;-48
2021/06/30 10:50:39;;;;;;;24.47;17.40;;;20.30;99.90;;;;;;5101374;28;20236;-48
2021/06/30 10:53:36;;;;;;;19.90;17.63;;;20.30;99.90;;;;;;5102182;28;20194;-51
2021/06/30 10:56:06;;;;;;;24.70;17.83;;;20.40;99.90;;;;;;5106144;28;20197;-52
2021/06/30 10:58:34;;;;;;;23.67;16.70;;;20.40;99.90;;;;;;5102873;28;20197;-51
2021/06/30 11:01:08;;;;;;;19.57;15.33;;;20.40;99.90;;;;;;5099942;28;20225;-49
2021/06/30 11:03:36;;;;;;;17.07;15.17;;;20.50;99.90;;;;;;5091899;28;20944;-52
2021/06/30 11:06:28;;;;;;;19.20;14.43;;;20.50;99.90;;;;;;5105933;28;20204;-51
2021/06/30 11:08:57;;;;;;;17.90;14.13;;;20.50;99.90;;;;;;5106127;27;20282;-52
2021/06/30 11:12:03;;;;;;;19.00;14.53;;;20.40;99.90;;;;;;5101846;28;20220;-48
2021/06/30 11:14:46;;;;;;;15.33;13.23;;;20.50;99.90;;;;;;5096665;28;20305;-49
2021/06/30 11:17:34;;;;;;;19.60;13.50;;;20.50;99.90;;;;;;5098999;28;20646;-50
2021/06/30 11:20:00;;;;;;;20.17;14.63;;;20.60;99.90;;;;;;5100007;28;20197;-49
2021/06/30 11:22:32;;;;;;;15.90;12.53;;;20.70;99.90;;;;;;5101169;28;20197;-50
2021/06/30 11:25:01;;;;;;;18.87;13.57;;;20.80;99.90;;;;;;5105398;28;20207;-49
2021/06/30 11:27:45;;;;;;;18.83;14.40;;;21.00;99.90;;;;;;5101299;28;20861;-46
2021/06/30 11:30:37;;;;;;;14.33;12.30;;;21.10;99.90;;;;;;5104001;28;20274;-47
2021/06/30 11:33:11;;;;;;;17.37;12.80;;;21.20;99.90;;;;;;5085017;28;20220;-49
2021/06/30 11:35:39;;;;;;;20.33;13.57;;;21.30;99.90;;;;;;5100838;28;20224;-51
2021/06/30 11:38:18;;;;;;;16.67;12.93;;;21.30;99.90;;;;;;5100592;28;20212;-48
2021/06/30 11:40:59;;;;;;;14.17;12.67;;;21.40;99.90;;;;;;5104048;28;20729;-51
2021/06/30 11:43:28;;;;;;;14.80;12.40;;;21.50;99.90;;;;;;5101013;28;20217;-49
2021/06/30 11:45:59;;;;;;;15.53;12.63;;;21.60;99.90;;;;;;5094044;28;20654;-50
2021/06/30 11:48:28;;;;;;;14.40;12.97;;;21.60;99.90;;;;;;5085951;28;20217;-50
2021/06/30 11:50:57;;;;;;;16.60;11.97;;;21.70;99.90;;;;;;5102795;28;20209;-51
2021/06/30 11:53:45;;;;;;;16.17;12.83;;;21.90;99.90;;;;;;5097585;28;20193;-46
2021/06/30 11:56:15;;;;;;;14.90;12.15;;;22.10;99.90;;;;;;5099885;28;20613;-46
2021/06/30 11:58:45;;;;;;;15.65;12.45;;;22.30;99.90;;;;;;5102895;28;20708;-50
2021/06/30 12:01:27;;;;;;;13.50;11.43;;;22.40;99.90;;;;;;5103669;28;20221;-47
2021/06/30 12:04:17;;;;;;;13.93;11.40;;;22.40;99.90;;;;;;5104633;28;20213;-48
2021/06/30 12:06:46;;;;;;;13.45;12.05;;;22.30;99.90;;;;;;5097589;28;20202;-51
2021/06/30 12:09:20;;;;;;;12.25;10.90;;;22.30;99.90;;;;;;5102691;28;20196;-46
2021/06/30 12:11:51;;;;;;;14.55;10.75;;;22.30;99.90;;;;;;5103451;28;20278;-48
2021/06/30 12:14:19;;;;;;;14.57;11.85;;;22.40;99.90;;;;;;5101970;28;20272;-49
2021/06/30 12:16:59;;;;;;;12.68;10.93;;;22.30;99.90;;;;;;5103593;28;20205;-50
2021/06/30 12:19:38;;;;;;;12.75;10.70;;;22.30;99.90;;;;;;5085524;28;22396;-48
2021/06/30 12:22:21;;;;;;;15.35;11.07;;;22.40;99.90;;;;;;5098142;28;20216;-48
2021/06/30 12:24:52;;;;;;;11.90;10.27;;;22.60;99.90;;;;;;5100707;28;20251;-52
2021/06/30 12:27:18;;;;;;;13.07;10.70;;;22.80;99.90;;;;;;5101092;28;20317;-51
2021/06/30 12:29:45;;;;;;;14.27;11.23;;;22.80;99.90;;;;;;5101578;28;20464;-47
2021/06/30 12:32:15;;;;;;;15.95;12.23;;;23.00;99.90;;;;;;5102947;28;20718;-48
2021/06/30 12:34:43;;;;;;;13.77;11.80;;;22.80;99.90;;;;;;5102436;28;20522;-47
2021/06/30 12:37:19;;;;;;;15.27;12.35;;;22.70;99.90;;;;;;5087829;28;20836;-47